Time;durP1;ratioP1;P1;durP2;ratioP2;P2;SDS_P1;SDS_P2;PMS_P1;PMS_P2;Temp;Humidity;BMP_temperature;BMP_pressure;BME280_temperature;BME280_humidity;BME280_pressure;Samples;Min_cycle;Max_cycle;Signal;HPM_P1;HPM_P2
2023/03/25 00:00:20;;;;;;;4.53;1.95;;;;;;;9.73;100.00;100053.16;6262238;22;20443;-71
2023/03/25 00:02:50;;;;;;;6.20;2.00;;;;;;;9.80;100.00;100065.94;6262190;22;20022;-72
2023/03/25 00:05:18;;;;;;;5.35;1.80;;;;;;;9.77;100.00;100058.16;6262556;22;20403;-71
2023/03/25 00:07:47;;;;;;;4.85;1.48;;;;;;;9.73;100.00;100063.81;6262631;22;20099;-70
2023/03/25 00:10:13;;;;;;;3.83;2.35;;;;;;;9.73;100.00;100053.16;6262537;22;20020;-70
2023/03/25 00:12:39;;;;;;;7.03;2.30;;;;;;;9.88;100.00;100059.19;6262227;22;20022;-71
2023/03/25 00:15:06;;;;;;;9.98;1.90;;;;;;;9.78;100.00;100045.69;6234811;22;20020;-71
2023/03/25 00:17:31;;;;;;;7.55;1.98;;;;;;;9.71;100.00;100057.75;6262362;22;20015;-70
2023/03/25 00:19:59;;;;;;;10.38;1.98;;;;;;;9.77;100.00;100047.50;6262598;22;20077;-71
2023/03/25 00:22:25;;;;;;;7.00;2.15;;;;;;;9.75;100.00;100049.44;6262255;22;20023;-70
2023/03/25 00:24:51;;;;;;;11.02;2.72;;;;;;;9.78;100.00;100040.34;6261351;22;20024;-70
2023/03/25 00:27:17;;;;;;;9.02;2.15;;;;;;;9.75;100.00;100045.94;6262011;22;20016;-70
2023/03/25 00:29:44;;;;;;;6.70;2.08;;;;;;;9.87;100.00;100047.69;6234131;22;20015;-70
2023/03/25 00:32:10;;;;;;;11.70;2.20;;;;;;;9.85;100.00;100046.94;6262152;22;20023;-70
2023/03/25 00:34:40;;;;;;;6.78;2.25;;;;;;;9.77;100.00;100044.00;6262387;22;20016;-71
2023/03/25 00:37:09;;;;;;;8.77;1.80;;;;;;;9.77;100.00;100042.16;6262093;22;20047;-71
2023/03/25 00:39:36;;;;;;;4.30;1.80;;;;;;;9.79;100.00;100042.94;6234269;22;20019;-71
2023/03/25 00:42:02;;;;;;;11.02;2.08;;;;;;;9.84;100.00;100050.59;6262121;22;20026;-70
2023/03/25 00:44:28;;;;;;;7.47;2.13;;;;;;;9.83;100.00;100044.38;6234138;22;20094;-71
2023/03/25 00:46:54;;;;;;;9.90;2.30;;;;;;;9.86;100.00;100046.84;6259842;22;20123;-70
2023/03/25 00:49:23;;;;;;;6.13;2.20;;;;;;;9.84;100.00;100043.44;6259727;22;20089;-70
2023/03/25 00:51:52;;;;;;;5.57;2.00;;;;;;;9.89;100.00;100032.47;6234470;22;20106;-69
2023/03/25 00:54:20;;;;;;;16.83;3.90;;;;;;;10.05;100.00;100040.16;6234234;22;20028;-70
2023/03/25 00:56:46;;;;;;;13.13;3.15;;;;;;;9.98;100.00;100038.91;6262068;22;20011;-71
2023/03/25 00:59:12;;;;;;;7.53;2.38;;;;;;;9.91;100.00;100040.31;6234327;22;20030;-71
2023/03/25 01:01:38;;;;;;;9.27;1.92;;;;;;;9.93;100.00;100043.72;6261892;22;20028;-69
2023/03/25 01:04:10;;;;;;;9.85;2.17;;;;;;;9.89;100.00;100037.78;6261517;22;20042;-71
2023/03/25 01:06:37;;;;;;;;;;;;;;;9.90;100.00;100039.47;6234861;22;20027;-71
2023/03/25 01:09:05;;;;;;;10.25;2.40;;;;;;;9.90;100.00;100036.81;6233822;22;20245;-71
2023/03/25 01:11:33;;;;;;;11.88;2.33;;;;;;;9.85;100.00;100037.16;6261625;22;20016;-71
2023/03/25 01:14:00;;;;;;;6.82;2.05;;;;;;;10.06;100.00;100039.19;6234126;22;20041;-70
2023/03/25 01:16:27;;;;;;;6.85;2.33;;;;;;;10.01;100.00;100044.84;6262454;22;20433;-71
2023/03/25 01:18:54;;;;;;;11.10;1.90;;;;;;;9.91;100.00;100045.66;6262246;22;20087;-71
2023/03/25 01:21:20;;;;;;;6.38;1.85;;;;;;;9.95;100.00;100029.34;6262629;22;20376;-70
2023/03/25 01:23:45;;;;;;;18.38;3.60;;;;;;;10.05;100.00;100035.69;6263360;22;20015;-71
2023/03/25 01:26:14;;;;;;;13.85;2.60;;;;;;;10.12;100.00;100042.25;6236710;22;20012;-71
2023/03/25 01:28:41;;;;;;;9.85;2.50;;;;;;;10.10;100.00;100052.16;6235811;22;20016;-71
2023/03/25 01:31:08;;;;;;;9.82;3.50;;;;;;;10.05;100.00;100046.34;6261371;22;20030;-71
2023/03/25 01:33:34;;;;;;;13.93;3.45;;;;;;;9.97;100.00;100043.38;6263335;22;20019;-70
2023/03/25 01:36:00;;;;;;;9.75;2.00;;;;;;;10.03;100.00;100039.41;6263987;22;20095;-71
2023/03/25 01:38:29;;;;;;;7.45;2.03;;;;;;;10.00;100.00;100034.31;6263175;22;20341;-71
2023/03/25 01:40:56;;;;;;;9.02;2.10;;;;;;;10.01;100.00;100039.53;6263408;22;20024;-70
2023/03/25 01:43:22;;;;;;;18.80;3.63;;;;;;;9.96;100.00;100040.84;6263307;22;20011;-70
2023/03/25 01:45:49;;;;;;;19.13;2.30;;;;;;;9.94;100.00;100032.97;6263329;22;20349;-69
2023/03/25 01:48:21;;;;;;;4.43;1.98;;;;;;;9.94;100.00;100030.31;6263319;22;20073;-71
2023/03/25 01:51:01;;;;;;;3.67;2.00;;;;;;;9.95;100.00;100023.16;6210434;22;20648;-70
2023/03/25 01:53:29;;;;;;;13.48;2.47;;;;;;;10.08;100.00;100022.13;6263247;22;20127;-70
2023/03/25 01:55:55;;;;;;;7.45;2.05;;;;;;;10.01;100.00;100023.53;6263380;22;20631;-71
2023/03/25 01:58:25;;;;;;;7.47;2.22;;;;;;;10.04;100.00;100014.47;6263254;22;20437;-69
2023/03/25 02:00:53;;;;;;;5.75;2.03;;;;;;;10.02;100.00;100025.25;6211202;22;20023;-70
2023/03/25 02:03:22;;;;;;;15.52;2.13;;;;;;;10.03;100.00;100029.59;6262835;22;20035;-71
2023/03/25 02:06:04;;;;;;;8.35;3.30;;;;;;;9.93;100.00;100025.91;6262719;22;20015;-70
2023/03/25 02:08:36;;;;;;;16.08;2.20;;;;;;;10.02;100.00;100029.72;6263079;22;20750;-70
2023/03/25 02:11:03;;;;;;;8.40;1.98;;;;;;;9.94;100.00;100027.66;6263761;22;20019;-71
2023/03/25 02:13:29;;;;;;;10.48;2.13;;;;;;;10.05;100.00;100016.19;6263676;22;20027;-70
2023/03/25 02:16:36;;;;;;;7.78;2.22;;;;;;;10.09;100.00;100023.84;6264442;22;20028;-70
2023/03/25 02:19:07;;;;;;;14.02;2.63;;;;;;;10.06;100.00;100029.38;6230387;22;20144;-69
2023/03/25 02:22:10;;;;;;;11.27;2.55;;;;;;;9.93;100.00;100036.56;6236318;22;20030;-70
2023/03/25 02:25:11;;;;;;;10.02;2.38;;;;;;;10.03;100.00;100034.94;6236305;22;20103;-69
2023/03/25 02:27:50;;;;;;;7.47;1.80;;;;;;;9.88;100.00;100027.22;6264034;22;20337;-70
2023/03/25 02:30:43;;;;;;;11.00;2.67;;;;;;;9.98;100.00;100028.25;6235324;22;20015;-70
2023/03/25 02:33:37;;;;;;;9.18;2.30;;;;;;;9.82;100.00;100024.03;6263059;22;20015;-70
2023/03/25 02:36:21;;;;;;;13.02;2.67;;;;;;;9.84;100.00;100022.16;6263455;22;20016;-72
2023/03/25 02:38:59;;;;;;;9.90;2.40;;;;;;;9.77;100.00;100025.34;6210944;22;20019;-70
2023/03/25 02:42:04;;;;;;;9.68;2.22;;;;;;;9.81;100.00;100017.03;6236362;22;20497;-70
2023/03/25 02:45:00;;;;;;;9.75;2.13;;;;;;;9.74;100.00;100022.91;6260860;22;20026;-70
2023/03/25 02:47:32;;;;;;;4.63;2.17;;;;;;;9.75;100.00;100011.31;6263330;22;20325;-69
2023/03/25 02:50:06;;;;;;;3.75;1.73;;;;;;;9.71;100.00;100012.50;6263133;22;20015;-70
2023/03/25 02:52:55;;;;;;;11.07;2.55;;;;;;;9.68;100.00;100020.69;6260784;22;20051;-70
2023/03/25 02:55:24;;;;;;;7.13;1.85;;;;;;;9.52;100.00;100019.16;6261612;22;20093;-70
2023/03/25 02:57:53;;;;;;;5.50;1.67;;;;;;;9.53;100.00;100015.50;6235744;22;20024;-69
2023/03/25 03:00:24;;;;;;;11.05;1.80;;;;;;;9.67;100.00;100014.53;6263509;22;20019;-71
2023/03/25 03:03:00;;;;;;;11.05;2.30;;;;;;;9.74;100.00;100015.78;6263535;22;20081;-69
2023/03/25 03:05:34;;;;;;;5.45;2.22;;;;;;;9.71;100.00;100005.34;6235569;22;20015;-70
2023/03/25 03:08:00;;;;;;;4.03;1.80;;;;;;;9.58;100.00;100021.34;6236281;22;20019;-69
2023/03/25 03:10:35;;;;;;;7.30;2.70;;;;;;;9.68;100.00;100010.03;6263748;22;20444;-69
2023/03/25 03:13:26;;;;;;;4.20;1.48;;;;;;;9.53;100.00;100002.22;6236263;22;20066;-69
2023/03/25 03:16:39;;;;;;;8.60;1.88;;;;;;;9.50;100.00;100002.44;6263729;22;20027;-69
2023/03/25 03:19:26;;;;;;;10.30;2.15;;;;;;;9.55;100.00;100012.75;6168610;23;20028;-70
2023/03/25 03:22:16;;;;;;;7.47;1.98;;;;;;;9.53;100.00;100007.53;6263484;22;20022;-69
2023/03/25 03:25:03;;;;;;;7.82;2.65;;;;;;;9.47;100.00;100007.97;6263301;22;20016;-69
2023/03/25 03:27:42;;;;;;;6.57;2.00;;;;;;;9.43;100.00;100005.66;6264202;22;20027;-70
2023/03/25 03:30:45;;;;;;;7.25;3.30;;;;;;;9.26;100.00;100014.84;6263891;22;20073;-70
2023/03/25 03:33:20;;;;;;;7.55;2.17;;;;;;;9.22;100.00;100006.22;6263699;22;20386;-70
2023/03/25 03:36:25;;;;;;;7.47;2.83;;;;;;;9.21;100.00;100009.84;6263809;22;20015;-69
2023/03/25 03:39:06;;;;;;;9.95;2.40;;;;;;;9.24;100.00;100020.28;6169003;23;20028;-71
2023/03/25 03:41:36;;;;;;;11.02;2.45;;;;;;;9.14;100.00;100011.25;6256160;22;20047;-71
2023/03/25 03:44:17;;;;;;;7.90;2.55;;;;;;;9.03;100.00;100012.00;6235871;22;20107;-71
2023/03/25 03:47:09;;;;;;;9.18;2.53;;;;;;;9.08;100.00;100017.84;6234647;22;20078;-70
2023/03/25 03:49:44;;;;;;;9.07;2.25;;;;;;;9.16;100.00;100019.13;6260434;22;20093;-70
2023/03/25 03:52:15;;;;;;;8.70;2.42;;;;;;;9.13;100.00;100025.50;6262647;22;20015;-70
2023/03/25 03:54:53;;;;;;;10.13;2.78;;;;;;;9.32;100.00;100027.72;6262253;22;20081;-69
2023/03/25 03:57:36;;;;;;;8.00;2.80;;;;;;;9.20;100.00;100020.63;6233889;22;20031;-70
2023/03/25 04:00:26;;;;;;;7.57;3.65;;;;;;;9.33;100.00;100024.94;6234873;22;20011;-69
2023/03/25 04:03:05;;;;;;;10.23;2.92;;;;;;;9.30;100.00;100013.69;6262745;22;20107;-70
2023/03/25 04:05:33;;;;;;;20.10;3.35;;;;;;;9.34;100.00;100021.34;6261036;22;20016;-70
2023/03/25 04:08:10;;;;;;;12.05;3.05;;;;;;;9.29;100.00;100010.16;6236072;22;20019;-71
2023/03/25 04:11:09;;;;;;;9.07;2.90;;;;;;;9.23;100.00;100007.06;6263607;22;20016;-69
2023/03/25 04:13:38;;;;;;;7.88;2.50;;;;;;;9.22;100.00;100019.53;6257048;22;20032;-72
2023/03/25 04:16:06;;;;;;;8.60;2.85;;;;;;;9.19;100.00;100009.13;6235989;22;20023;-70
2023/03/25 04:18:32;;;;;;;10.45;2.70;;;;;;;9.29;100.00;100007.50;6262986;22;20307;-70
2023/03/25 04:20:59;;;;;;;6.80;2.72;;;;;;;9.22;100.00;100016.88;6263130;22;20011;-71
2023/03/25 04:23:28;;;;;;;12.73;3.05;;;;;;;9.27;100.00;100005.91;6262925;22;20030;-71
2023/03/25 04:25:55;;;;;;;12.77;2.67;;;;;;;9.20;100.00;99999.34;6262957;22;20015;-71
2023/03/25 04:28:22;;;;;;;7.65;2.35;;;;;;;9.16;100.00;100009.34;6235643;22;20020;-70
2023/03/25 04:30:54;;;;;;;11.65;2.88;;;;;;;9.13;100.00;100006.03;6261501;22;20011;-71
2023/03/25 04:33:23;;;;;;;8.57;3.10;;;;;;;9.10;100.00;100003.59;6262942;22;20039;-70
2023/03/25 04:35:49;;;;;;;12.90;3.30;;;;;;;9.07;100.00;99988.69;6262364;22;20012;-71
2023/03/25 04:38:17;;;;;;;12.00;2.50;;;;;;;8.96;100.00;99997.44;6262879;22;20023;-72
2023/03/25 04:40:45;;;;;;;10.70;2.15;;;;;;;9.03;100.00;99998.69;6262528;22;20015;-69
2023/03/25 04:43:15;;;;;;;12.05;3.05;;;;;;;9.01;100.00;100005.94;6235408;22;20007;-70
2023/03/25 04:45:47;;;;;;;11.25;2.95;;;;;;;9.12;100.00;100002.53;6262120;22;20020;-69
2023/03/25 04:48:23;;;;;;;15.52;3.50;;;;;;;8.94;100.00;100007.34;6262391;22;20101;-71
2023/03/25 04:50:50;;;;;;;7.32;2.67;;;;;;;8.99;100.00;100007.88;6234415;22;20050;-71
2023/03/25 04:53:16;;;;;;;9.85;2.75;;;;;;;8.99;100.00;100005.22;6261613;22;20026;-69
2023/03/25 04:55:46;;;;;;;10.70;3.17;;;;;;;9.14;100.00;99999.78;6261478;22;20023;-70
2023/03/25 04:58:15;;;;;;;10.00;2.70;;;;;;;9.11;100.00;100003.50;6262983;22;20037;-70
2023/03/25 05:00:48;;;;;;;11.75;3.20;;;;;;;9.16;100.00;99990.72;6263543;22;20016;-71
2023/03/25 05:03:14;;;;;;;19.08;3.42;;;;;;;9.00;100.00;99995.44;6263769;22;20015;-70
2023/03/25 05:05:40;;;;;;;9.52;3.13;;;;;;;9.15;100.00;100004.13;6263752;22;20015;-71
2023/03/25 05:08:06;;;;;;;12.13;2.80;;;;;;;9.24;100.00;99992.84;6263513;22;20012;-71
2023/03/25 05:10:33;;;;;;;20.38;2.97;;;;;;;9.24;100.00;99993.69;6263596;22;20015;-71
2023/03/25 05:13:05;;;;;;;5.30;2.25;;;;;;;9.29;100.00;99993.38;6263478;22;20046;-71
2023/03/25 05:15:38;;;;;;;11.63;2.90;;;;;;;9.32;100.00;99993.97;6236417;22;20330;-70
2023/03/25 05:18:03;;;;;;;;;;;;;;;9.25;100.00;99995.38;6263823;22;20023;-70
2023/03/25 05:20:31;;;;;;;9.60;2.75;;;;;;;9.39;100.00;99986.41;6235681;22;19915;-70
2023/03/25 05:22:57;;;;;;;10.02;2.63;;;;;;;9.36;100.00;99997.28;6263359;22;20041;-70
2023/03/25 05:25:22;;;;;;;12.10;4.40;;;;;;;9.34;100.00;99984.09;6263338;22;20011;-70
2023/03/25 05:27:48;;;;;;;11.82;2.55;;;;;;;9.40;100.00;100001.41;6263045;22;20049;-70
2023/03/25 05:30:14;;;;;;;8.52;2.55;;;;;;;9.46;100.00;100011.59;6234935;22;20015;-72
2023/03/25 05:32:41;;;;;;;22.50;2.78;;;;;;;9.45;100.00;100004.59;6262252;22;20039;-70
2023/03/25 05:35:07;;;;;;;15.35;2.80;;;;;;;9.38;100.00;100003.31;6234997;22;20016;-70
2023/03/25 05:37:32;;;;;;;14.65;2.50;;;;;;;9.35;100.00;99995.56;6260583;22;20761;-71
2023/03/25 05:39:58;;;;;;;7.55;2.40;;;;;;;9.36;100.00;100007.91;6261926;22;20012;-69
2023/03/25 05:42:24;;;;;;;7.95;2.08;;;;;;;9.37;100.00;100009.59;6262672;22;20107;-70
2023/03/25 05:44:51;;;;;;;10.30;2.97;;;;;;;9.41;100.00;100005.78;6262557;22;20012;-71
2023/03/25 05:47:27;;;;;;;7.45;2.20;;;;;;;9.36;100.00;100005.25;6235263;22;20023;-70
2023/03/25 05:49:53;;;;;;;6.32;2.90;;;;;;;9.38;100.00;100005.97;6262725;22;20018;-70
2023/03/25 05:52:19;;;;;;;11.18;1.90;;;;;;;9.42;100.00;100009.28;6262664;22;20008;-69
2023/03/25 05:54:49;;;;;;;12.77;2.95;;;;;;;9.39;100.00;100014.81;6236120;22;20140;-69
2023/03/25 05:57:15;;;;;;;7.95;2.35;;;;;;;9.35;100.00;100019.53;6263304;22;20015;-69
2023/03/25 05:59:40;;;;;;;8.43;2.58;;;;;;;9.46;100.00;100008.09;6262815;22;20018;-70
2023/03/25 06:02:14;;;;;;;7.13;2.30;;;;;;;9.33;100.00;100014.28;6263400;22;20020;-69
2023/03/25 06:04:40;;;;;;;19.55;4.47;;;;;;;9.22;100.00;100016.03;6236554;22;20145;-69
2023/03/25 06:07:18;;;;;;;6.47;2.10;;;;;;;9.27;100.00;100016.53;6261429;22;20047;-69
2023/03/25 06:09:47;;;;;;;5.72;2.00;;;;;;;9.44;100.00;100031.28;6263504;22;20022;-71
2023/03/25 06:12:14;;;;;;;6.05;1.90;;;;;;;9.31;100.00;100026.88;6264040;22;20777;-70
2023/03/25 06:14:44;;;;;;;5.30;2.60;;;;;;;9.40;100.00;100035.16;6261215;22;20532;-71
2023/03/25 06:17:11;;;;;;;10.10;2.10;;;;;;;9.26;100.00;100034.31;6262012;22;20016;-69
2023/03/25 06:19:41;;;;;;;13.02;2.45;;;;;;;9.33;100.00;100024.09;6263585;22;20083;-69
2023/03/25 06:22:08;;;;;;;7.68;2.08;;;;;;;9.30;100.00;100022.50;6263480;22;20016;-70
2023/03/25 06:24:36;;;;;;;13.13;2.50;;;;;;;9.30;100.00;100030.50;6263642;22;20082;-70
2023/03/25 06:27:02;;;;;;;8.85;2.42;;;;;;;9.24;100.00;100030.94;6263297;22;20710;-68
2023/03/25 06:29:27;;;;;;;9.02;2.97;;;;;;;9.38;100.00;100029.94;6263171;22;20019;-69
2023/03/25 06:31:53;;;;;;;9.38;2.10;;;;;;;9.31;100.00;100036.66;6263555;22;20016;-69
2023/03/25 06:34:18;;;;;;;7.88;2.83;;;;;;;9.35;100.00;100035.47;6263839;22;20015;-71
2023/03/25 06:36:44;;;;;;;4.88;2.83;;;;;;;9.40;100.00;100045.81;6236334;22;20015;-71
2023/03/25 06:39:10;;;;;;;14.70;2.95;;;;;;;9.51;100.00;100037.91;6235898;22;20011;-70
2023/03/25 06:41:36;;;;;;;11.77;3.85;;;;;;;9.40;100.00;100038.66;6236180;22;20099;-69
2023/03/25 06:44:18;;;;;;;10.05;3.88;;;;;;;9.45;100.00;100039.19;6236240;22;20070;-69
2023/03/25 06:47:13;;;;;;;10.98;3.72;;;;;;;9.70;100.00;100042.75;6229331;22;20027;-71
2023/03/25 06:49:43;;;;;;;9.50;3.15;;;;;;;9.70;100.00;100037.44;6237640;22;20654;-71
2023/03/25 06:52:08;;;;;;;9.10;3.50;;;;;;;9.77;100.00;100042.16;6235967;22;20118;-70
2023/03/25 06:54:34;;;;;;;8.88;3.35;;;;;;;9.93;100.00;100044.56;6263797;22;20776;-69
2023/03/25 06:56:59;;;;;;;13.35;3.00;;;;;;;9.96;100.00;100049.66;6263488;22;20630;-71
2023/03/25 06:59:25;;;;;;;13.43;4.57;;;;;;;9.93;100.00;100039.22;6264288;22;20016;-70
2023/03/25 07:01:50;;;;;;;10.18;3.03;;;;;;;9.76;100.00;100048.47;6236332;22;20019;-70
2023/03/25 07:04:16;;;;;;;12.13;3.28;;;;;;;9.81;100.00;100058.78;6263809;22;20641;-70
2023/03/25 07:06:42;;;;;;;13.80;3.40;;;;;;;9.90;100.00;100041.28;6263677;22;20023;-69
2023/03/25 07:09:07;;;;;;;14.27;3.67;;;;;;;9.85;100.00;100044.28;6264144;22;20103;-69
2023/03/25 07:11:33;;;;;;;12.43;3.42;;;;;;;9.80;100.00;100041.97;6263846;22;20019;-71
2023/03/25 07:13:59;;;;;;;16.17;3.42;;;;;;;9.78;100.00;100053.66;6263579;22;20047;-69
2023/03/25 07:16:26;;;;;;;10.02;3.13;;;;;;;9.97;100.00;100051.38;6236375;22;20055;-72
2023/03/25 07:18:53;;;;;;;17.38;3.40;;;;;;;9.73;100.00;100043.34;6210540;22;20015;-69
2023/03/25 07:21:19;;;;;;;9.23;3.08;;;;;;;10.11;100.00;100055.69;6262829;22;20031;-69
2023/03/25 07:23:44;;;;;;;15.02;3.30;;;;;;;10.23;100.00;100054.75;6263048;22;20019;-70
2023/03/25 07:26:12;;;;;;;12.30;2.63;;;;;;;10.23;100.00;100044.09;6263120;22;20019;-71
2023/03/25 07:28:39;;;;;;;11.82;3.28;;;;;;;10.35;100.00;100040.56;6262971;22;20432;-70
2023/03/25 07:31:09;;;;;;;17.42;4.93;;;;;;;10.56;100.00;100039.91;6262278;22;20042;-71
2023/03/25 07:33:36;;;;;;;19.88;4.68;;;;;;;10.49;100.00;100030.66;6235152;22;20082;-71
2023/03/25 07:36:03;;;;;;;12.02;3.47;;;;;;;10.60;100.00;100041.38;6262250;22;20720;-71
2023/03/25 07:38:29;;;;;;;13.20;3.45;;;;;;;10.68;100.00;100046.09;6235449;22;20580;-69
2023/03/25 07:40:54;;;;;;;10.00;3.60;;;;;;;10.63;100.00;100041.13;6258441;22;20114;-71
2023/03/25 07:43:20;;;;;;;14.65;3.28;;;;;;;10.46;100.00;100042.41;6231828;22;20024;-70
2023/03/25 07:45:54;;;;;;;13.48;3.22;;;;;;;10.23;100.00;100032.59;6231635;22;20622;-69
2023/03/25 07:48:21;;;;;;;10.30;2.80;;;;;;;10.00;100.00;100048.50;6232484;22;20023;-70
2023/03/25 07:50:50;;;;;;;12.00;3.13;;;;;;;10.10;100.00;100051.31;6231549;22;20487;-71
2023/03/25 07:53:15;;;;;;;13.25;3.40;;;;;;;10.34;100.00;100046.00;6258146;22;20649;-70
2023/03/25 07:55:44;;;;;;;12.00;3.22;;;;;;;10.42;100.00;100054.28;6258945;22;20019;-70
2023/03/25 07:58:10;;;;;;;15.70;2.97;;;;;;;10.58;100.00;100060.13;6258951;22;20026;-71
2023/03/25 08:00:36;;;;;;;12.60;3.88;;;;;;;10.58;100.00;100053.94;6258543;22;20178;-71
2023/03/25 08:03:02;;;;;;;9.93;4.20;;;;;;;11.07;100.00;100053.69;6232084;22;20020;-70
2023/03/25 08:05:28;;;;;;;12.73;3.13;;;;;;;10.76;100.00;100059.72;6258410;22;20004;-70
2023/03/25 08:07:54;;;;;;;9.68;2.80;;;;;;;10.69;100.00;100064.63;6257821;22;20062;-70
2023/03/25 08:10:20;;;;;;;10.32;3.30;;;;;;;10.36;100.00;100084.06;6256354;22;20429;-71
2023/03/25 08:12:46;;;;;;;14.93;3.35;;;;;;;10.59;100.00;100069.84;6228495;22;20090;-72
2023/03/25 08:15:12;;;;;;;15.80;4.18;;;;;;;10.89;100.00;100084.44;6255779;22;20872;-71
2023/03/25 08:17:38;;;;;;;12.82;3.47;;;;;;;10.27;100.00;100093.56;6230202;22;20103;-70
2023/03/25 08:20:05;;;;;;;13.52;3.40;;;;;;;10.23;100.00;100094.72;6255595;22;20436;-70
2023/03/25 08:22:31;;;;;;;17.13;4.45;;;;;;;9.83;100.00;100097.63;6255655;22;20710;-70
2023/03/25 08:24:58;;;;;;;17.08;3.28;;;;;;;9.64;100.00;100093.75;6229859;22;20023;-70
2023/03/25 08:27:23;;;;;;;18.25;3.47;;;;;;;9.74;100.00;100100.09;6259711;22;20047;-70
2023/03/25 08:29:53;;;;;;;16.23;4.50;;;;;;;10.06;100.00;100101.31;6259662;22;20065;-69
2023/03/25 08:32:26;;;;;;;18.67;4.80;;;;;;;10.51;100.00;100090.91;6232578;22;20107;-70
2023/03/25 08:34:52;;;;;;;20.48;3.67;;;;;;;10.86;100.00;100090.03;6259703;22;20635;-70
2023/03/25 08:37:18;;;;;;;19.73;4.15;;;;;;;10.51;100.00;100090.06;6232881;22;20015;-69
2023/03/25 08:39:44;;;;;;;12.65;4.32;;;;;;;10.39;100.00;100097.13;6232131;22;20893;-69
2023/03/25 08:42:13;;;;;;;12.35;3.30;;;;;;;10.68;100.00;100086.09;6259463;22;20415;-70
2023/03/25 08:44:38;;;;;;;16.20;4.63;;;;;;;11.09;100.00;100090.91;6260029;22;20477;-70
2023/03/25 08:47:05;;;;;;;13.32;3.33;;;;;;;10.47;100.00;100083.25;6207889;22;20026;-69
2023/03/25 08:49:30;;;;;;;22.30;5.00;;;;;;;10.82;100.00;100093.91;6207379;22;20027;-70
2023/03/25 08:51:57;;;;;;;20.52;4.20;;;;;;;10.76;100.00;100092.56;6232720;22;20349;-70
2023/03/25 08:54:24;;;;;;;16.55;3.58;;;;;;;11.36;100.00;100095.94;6260609;22;20054;-70
2023/03/25 08:56:51;;;;;;;23.77;4.35;;;;;;;10.71;100.00;100104.53;6260817;22;20123;-68
2023/03/25 08:59:16;;;;;;;23.45;5.25;;;;;;;11.03;100.00;100107.41;6260489;22;20115;-70
2023/03/25 09:01:43;;;;;;;33.03;6.22;;;;;;;11.06;100.00;100102.69;6231927;22;20099;-71
2023/03/25 09:04:10;;;;;;;17.95;3.60;;;;;;;10.36;100.00;100114.22;6259293;22;20008;-70
2023/03/25 09:06:36;;;;;;;17.50;4.00;;;;;;;9.95;100.00;100119.88;6259772;22;20050;-71
2023/03/25 09:09:04;;;;;;;27.15;5.07;;;;;;;9.98;100.00;100122.31;6260214;22;20094;-70
2023/03/25 09:11:33;;;;;;;21.83;4.10;;;;;;;10.04;100.00;100129.88;6260463;22;20015;-70
2023/03/25 09:14:01;;;;;;;15.73;4.50;;;;;;;9.89;100.00;100124.78;6232823;22;20020;-70
2023/03/25 09:16:27;;;;;;;13.40;4.07;;;;;;;10.00;100.00;100123.06;6261008;22;20692;-70
2023/03/25 09:18:52;;;;;;;21.50;4.38;;;;;;;10.45;100.00;100120.69;6260129;22;20095;-71
2023/03/25 09:21:18;;;;;;;24.15;4.65;;;;;;;10.38;100.00;100114.94;6257990;22;20043;-70
2023/03/25 09:23:43;;;;;;;19.90;4.45;;;;;;;10.51;100.00;100117.56;6233221;22;20629;-71
2023/03/25 09:26:09;;;;;;;27.75;4.28;;;;;;;10.70;100.00;100092.19;6260440;22;20019;-72
2023/03/25 09:28:34;;;;;;;19.17;4.65;;;;;;;11.46;100.00;100098.72;6232092;22;20027;-72
2023/03/25 09:31:00;;;;;;;21.60;4.00;;;;;;;11.54;100.00;100088.28;6232913;22;20830;-72
2023/03/25 09:33:26;;;;;;;17.00;4.03;;;;;;;11.14;100.00;100092.28;6259941;22;20440;-71
2023/03/25 09:35:52;;;;;;;23.75;5.63;;;;;;;10.96;100.00;100091.03;6231896;22;20050;-70
2023/03/25 09:38:18;;;;;;;16.73;4.63;;;;;;;11.18;100.00;100094.69;6259257;22;20020;-71
2023/03/25 09:40:44;;;;;;;17.10;4.15;;;;;;;11.18;100.00;100084.88;6232277;22;20047;-72
2023/03/25 09:43:36;;;;;;;18.42;5.03;;;;;;;11.52;100.00;100096.41;6261277;22;20028;-86
2023/03/25 09:46:03;;;;;;;14.68;3.40;;;;;;;11.72;100.00;100092.16;6321614;22;20129;-86
2023/03/25 09:48:32;;;;;;;14.02;2.75;;;;;;;11.41;100.00;100099.09;6281462;22;20025;-86
2023/03/25 09:51:02;;;;;;;21.95;3.67;;;;;;;11.54;100.00;100098.97;6279952;22;20030;-85
2023/03/25 09:53:42;;;;;;;20.30;5.35;;;;;;;11.96;100.00;100105.41;6332888;22;20420;-84
2023/03/25 09:56:15;;;;;;;17.33;3.88;;;;;;;11.60;100.00;100107.34;6304724;22;20018;-84
2023/03/25 09:59:07;;;;;;;25.17;4.97;;;;;;;11.71;100.00;100109.16;6333235;22;20018;-84
2023/03/25 10:01:43;;;;;;;17.75;3.33;;;;;;;11.48;100.00;100110.97;6310865;22;20019;-84
2023/03/25 10:04:28;;;;;;;18.63;3.97;;;;;;;11.65;100.00;100125.69;6306879;22;20452;-86
2023/03/25 10:07:17;;;;;;;14.88;3.90;;;;;;;11.25;100.00;100112.78;6335186;22;20064;-85
2023/03/25 10:09:55;;;;;;;23.92;4.10;;;;;;;11.97;100.00;100120.44;6334688;22;20117;-85
2023/03/25 10:12:46;;;;;;;18.45;4.63;;;;;;;11.87;100.00;100124.84;6307120;22;20034;-85
2023/03/25 10:15:34;;;;;;;19.10;3.90;;;;;;;11.61;100.00;100127.72;6334164;22;20074;-85
2023/03/25 10:18:08;;;;;;;16.60;4.35;;;;;;;11.72;100.00;100116.19;6334066;22;20030;-84
2023/03/25 10:20:51;;;;;;;13.40;3.95;;;;;;;11.50;100.00;100118.88;6277412;22;20015;-85
2023/03/25 10:23:25;;;;;;;18.52;3.20;;;;;;;11.32;100.00;100103.31;6302407;22;20015;-84
2023/03/25 10:26:00;;;;;;;12.68;4.10;;;;;;;11.47;100.00;100125.31;6276316;22;20025;-85
2023/03/25 10:28:39;;;;;;;12.50;3.60;;;;;;;11.70;100.00;100131.50;6303167;22;20014;-86
2023/03/25 10:31:13;;;;;;;13.77;4.45;;;;;;;12.08;100.00;100131.13;6331576;22;20018;-85
2023/03/25 10:33:50;;;;;;;13.48;3.33;;;;;;;12.11;100.00;100122.00;6332321;22;20038;-85
2023/03/25 10:36:18;;;;;;;22.15;5.03;;;;;;;12.35;100.00;100129.81;6303397;22;20403;-85
2023/03/25 10:38:46;;;;;;;15.32;3.17;;;;;;;13.14;100.00;100108.91;6304352;22;20343;-85
2023/03/25 10:41:25;;;;;;;24.13;5.32;;;;;;;12.73;100.00;100121.31;6305782;22;20448;-86
2023/03/25 10:43:51;;;;;;;19.50;3.45;;;;;;;13.06;100.00;100122.13;6305381;22;20530;-85
2023/03/25 10:46:33;;;;;;;22.13;3.78;;;;;;;12.17;100.00;100121.50;6333659;22;20113;-85
2023/03/25 10:48:58;;;;;;;20.75;5.47;;;;;;;11.75;100.00;100137.34;6333921;22;20010;-85
2023/03/25 10:51:31;;;;;;;15.63;3.53;;;;;;;11.83;100.00;100116.22;6333637;22;20006;-84
2023/03/25 10:53:57;;;;;;;16.65;4.38;;;;;;;12.87;100.00;100112.97;6335321;22;20010;-85
2023/03/25 10:56:35;;;;;;;14.70;4.10;;;;;;;12.83;100.00;100130.25;6306716;22;20030;-85
2023/03/25 10:59:12;;;;;;;19.58;3.33;;;;;;;12.22;100.00;100121.13;6307076;22;20011;-86
2023/03/25 11:01:41;;;;;;;17.23;3.92;;;;;;;11.83;100.00;100136.75;6334938;22;20068;-85
2023/03/25 11:04:13;;;;;;;12.35;3.78;;;;;;;11.76;100.00;100138.19;6307466;22;20007;-86
2023/03/25 11:06:40;;;;;;;13.07;2.50;;;;;;;11.10;100.00;100151.34;6335763;22;20014;-84
2023/03/25 11:09:14;;;;;;;14.43;3.45;;;;;;;11.32;100.00;100115.81;6334916;22;20010;-84
2023/03/25 11:11:41;;;;;;;19.00;4.32;;;;;;;11.65;100.00;100115.84;6335642;22;20093;-83
2023/03/25 11:14:07;;;;;;;21.63;4.47;;;;;;;12.25;100.00;100119.06;6307922;22;20042;-85
2023/03/25 11:16:47;;;;;;;21.70;3.97;;;;;;;12.67;100.00;100133.38;6336019;22;20106;-86
2023/03/25 11:19:23;;;;;;;22.30;3.78;;;;;;;12.96;100.00;100122.06;6336215;22;20011;-83
2023/03/25 11:22:06;;;;;;;25.40;3.72;;;;;;;13.15;100.00;100116.84;6335259;22;20022;-85
2023/03/25 11:24:39;;;;;;;20.67;4.55;;;;;;;13.94;99.93;100122.41;6335580;22;20007;-83
2023/03/25 11:27:06;;;;;;;20.42;3.55;;;;;;;13.40;100.00;100126.31;6277120;22;20023;-85
2023/03/25 11:29:33;;;;;;;27.15;4.97;;;;;;;12.98;100.00;100127.25;6330740;22;20345;-85
2023/03/25 11:32:07;;;;;;;18.25;3.97;;;;;;;12.48;100.00;100133.19;6335012;22;20321;-83
2023/03/25 11:34:40;;;;;;;21.90;4.13;;;;;;;12.85;100.00;100135.47;6335561;22;20090;-82